Aviation Digital Data Service (ADDS)

Output produced by METARs form (1153 UTC 11 December 2016)
found at http://aviationweather.gov/adds/metars/
 
KMGW 111140Z 1112/1212 17003KT 5SM -SN OVC035 
     FM111400 16007KT P6SM OVC080 
     FM120300 14007KT 5SM -RA OVC035 
     FM120600 19008KT 2SM -RA OVC025